Time;durP1;ratioP1;P1;durP2;ratioP2;P2;SDS_P1;SDS_P2;PMS_P1;PMS_P2;Temp;Humidity;BMP_temperature;BMP_pressure;BME280_temperature;BME280_humidity;BME280_pressure;Samples;Min_cycle;Max_cycle;Signal;HPM_P1;HPM_P2
2022/11/15 00:00:54;;;;;;;7.20;5.18;;;;;;;7.87;81.38;98041.13;4969731;28;20058;-83
2022/11/15 00:03:23;;;;;;;7.43;5.10;;;;;;;7.76;81.21;98027.53;4966709;28;20101;-83
2022/11/15 00:05:50;;;;;;;9.50;5.55;;;;;;;7.86;81.42;98032.47;4970009;28;20038;-83
2022/11/15 00:08:15;;;;;;;7.30;4.53;;;;;;;7.83;81.58;98034.63;4969210;28;20474;-84
2022/11/15 00:10:41;;;;;;;7.20;5.10;;;;;;;7.74;81.50;98024.31;4969414;28;20165;-83
2022/11/15 00:13:12;;;;;;;6.18;4.85;;;;;;;7.77;81.67;98030.94;4970145;28;20414;-83
2022/11/15 00:15:39;;;;;;;8.02;5.38;;;;;;;7.72;81.72;98031.50;4969862;28;20627;-83
2022/11/15 00:18:11;;;;;;;6.70;5.05;;;;;;;7.78;81.83;98035.16;4969978;28;20434;-83
2022/11/15 00:20:37;;;;;;;7.47;4.82;;;;;;;7.81;81.72;98036.63;4969248;28;20046;-83
2022/11/15 00:23:07;;;;;;;6.82;4.65;;;;;;;7.81;81.89;98039.25;4969727;28;20391;-83
2022/11/15 00:25:33;;;;;;;8.15;5.07;;;;;;;7.76;81.65;98037.16;4968724;28;20077;-83
2022/11/15 00:28:00;;;;;;;7.25;5.20;;;;;;;7.74;81.60;98032.13;4970594;28;20505;-83
2022/11/15 00:30:27;;;;;;;7.80;4.68;;;;;;;7.74;81.67;98028.72;4967670;28;20062;-83
2022/11/15 00:32:52;;;;;;;7.07;5.28;;;;;;;7.72;82.08;98030.69;4969558;28;20675;-83
2022/11/15 00:35:19;;;;;;;7.55;5.15;;;;;;;7.70;82.00;98027.44;4969701;28;20054;-83
2022/11/15 00:37:44;;;;;;;7.40;5.78;;;;;;;7.65;81.91;98020.16;4969548;28;20709;-83
2022/11/15 00:40:12;;;;;;;7.63;5.30;;;;;;;7.68;82.32;98035.47;4972045;28;20054;-83
2022/11/15 00:42:38;;;;;;;7.32;5.07;;;;;;;7.63;81.94;98027.38;4973168;28;20034;-83
2022/11/15 00:45:04;;;;;;;7.05;4.80;;;;;;;7.59;82.24;98033.94;4973863;28;20093;-84
2022/11/15 00:47:29;;;;;;;7.70;5.25;;;;;;;7.55;82.01;98034.47;4973610;28;20177;-83
2022/11/15 00:49:55;;;;;;;7.47;5.50;;;;;;;7.50;82.66;98032.44;4973496;28;20125;-83
2022/11/15 00:52:20;;;;;;;7.13;4.68;;;;;;;7.49;82.82;98028.19;4973291;28;20391;-83
2022/11/15 00:54:46;;;;;;;7.82;5.57;;;;;;;7.50;82.88;98030.63;4973174;28;20033;-83
2022/11/15 00:57:11;;;;;;;6.80;5.25;;;;;;;7.48;82.88;98027.38;4973310;28;20073;-83
2022/11/15 00:59:37;;;;;;;9.35;5.63;;;;;;;7.50;83.18;98022.81;4972976;28;20023;-83
2022/11/15 01:02:02;;;;;;;7.70;5.30;;;;;;;7.55;83.10;98024.03;4970126;28;20043;-83
2022/11/15 01:04:28;;;;;;;8.48;6.00;;;;;;;7.56;82.65;98031.72;4972947;28;20458;-83
2022/11/15 01:06:54;;;;;;;6.93;5.25;;;;;;;7.56;82.50;98021.28;4973222;28;20065;-83
2022/11/15 01:09:19;;;;;;;7.28;5.72;;;;;;;7.50;82.63;98012.38;4971210;28;20121;-83
2022/11/15 01:11:45;;;;;;;9.30;6.35;;;;;;;7.56;82.67;98023.03;4972967;28;20038;-83
2022/11/15 01:14:10;;;;;;;6.55;5.03;;;;;;;7.55;82.59;98019.63;4973199;28;20517;-83
2022/11/15 01:16:36;;;;;;;7.10;5.55;;;;;;;7.55;82.22;98013.59;4972544;28;20483;-83
2022/11/15 01:19:01;;;;;;;7.65;5.95;;;;;;;7.56;82.63;98016.06;4973234;28;20046;-83
2022/11/15 01:21:27;;;;;;;9.13;5.63;;;;;;;7.53;82.30;98000.75;4977531;28;20475;-83
2022/11/15 01:23:55;;;;;;;10.32;6.00;;;;;;;7.52;81.85;98012.19;4972942;28;20114;-83
2022/11/15 01:26:21;;;;;;;9.88;5.82;;;;;;;7.50;81.88;98017.59;4971426;28;20101;-83
2022/11/15 01:28:47;;;;;;;7.68;5.82;;;;;;;7.51;82.36;98013.19;4972498;28;20038;-83
2022/11/15 01:31:17;;;;;;;7.38;5.40;;;;;;;7.53;82.22;98012.97;4971764;28;20487;-83
2022/11/15 01:33:43;;;;;;;9.25;5.70;;;;;;;7.54;82.42;98010.19;4971387;28;20557;-83
2022/11/15 01:36:15;;;;;;;8.68;5.82;;;;;;;7.50;82.26;97998.50;4972310;28;20035;-83
2022/11/15 01:38:42;;;;;;;7.63;4.95;;;;;;;7.48;82.06;97992.66;4971482;28;20038;-83
2022/11/15 01:41:20;;;;;;;8.60;5.50;;;;;;;7.36;81.89;97996.72;4971920;28;20445;-83
2022/11/15 01:43:51;;;;;;;8.02;5.70;;;;;;;7.36;82.28;97994.09;4971878;28;20054;-83
2022/11/15 01:46:28;;;;;;;7.75;5.50;;;;;;;7.31;82.23;97992.03;4987164;28;20071;-83
2022/11/15 01:49:01;;;;;;;8.48;6.03;;;;;;;7.21;82.54;97991.50;4972250;28;20038;-83
2022/11/15 01:51:32;;;;;;;7.93;5.18;;;;;;;7.16;82.45;97972.97;4971295;28;20109;-83
2022/11/15 01:54:05;;;;;;;7.55;5.55;;;;;;;7.17;82.68;97979.81;4972807;28;20097;-84
2022/11/15 01:56:39;;;;;;;7.47;5.15;;;;;;;7.10;82.84;97974.50;4971064;28;20042;-83
2022/11/15 01:59:08;;;;;;;8.25;5.60;;;;;;;7.03;82.21;97965.78;4971060;28;20045;-84
2022/11/15 02:01:35;;;;;;;8.88;5.25;;;;;;;6.94;82.85;97954.63;4968543;28;20039;-83
2022/11/15 02:04:45;;;;;;;7.85;5.28;;;;;;;6.95;82.96;97960.66;4971059;28;20038;-83
2022/11/15 02:07:16;;;;;;;7.07;4.70;;;;;;;6.87;82.69;97952.94;4971444;28;20073;-83
2022/11/15 02:09:43;;;;;;;6.63;4.75;;;;;;;6.91;83.13;97954.19;4970415;28;20395;-83
2022/11/15 02:12:13;;;;;;;7.57;5.22;;;;;;;6.86;83.40;97944.28;4971303;28;20041;-83
2022/11/15 02:14:44;;;;;;;7.55;4.97;;;;;;;6.92;83.11;97950.59;4970257;28;20034;-83
2022/11/15 02:17:44;;;;;;;9.50;5.93;;;;;;;6.91;82.92;97954.19;4970003;28;20031;-83
2022/11/15 02:20:54;;;;;;;7.65;6.03;;;;;;;6.95;83.27;97960.66;4971311;28;20030;-83
2022/11/15 02:24:00;;;;;;;7.93;5.10;;;;;;;6.92;82.59;97955.81;4971427;28;20062;-83
2022/11/15 02:27:03;;;;;;;8.38;5.57;;;;;;;6.96;82.77;97955.28;4971173;28;20058;-83
2022/11/15 02:30:04;;;;;;;7.82;5.57;;;;;;;7.03;82.98;97954.56;4971699;28;20170;-83
2022/11/15 02:32:44;;;;;;;8.45;5.75;;;;;;;7.07;82.94;97947.97;4971699;28;20047;-83
2022/11/15 02:35:45;;;;;;;8.43;5.55;;;;;;;7.11;82.75;97942.22;4971000;28;20041;-83
2022/11/15 02:38:37;;;;;;;8.43;5.57;;;;;;;7.12;82.80;97933.41;4969687;28;20047;-83
2022/11/15 02:41:12;;;;;;;8.10;5.88;;;;;;;7.03;82.40;97931.09;4970457;28;20475;-84
2022/11/15 02:44:09;;;;;;;9.98;6.15;;;;;;;7.08;82.75;97924.34;4971275;28;20041;-83
2022/11/15 02:49:39;;;;;;;9.95;5.85;;;;;;;7.06;82.51;97915.88;4970384;28;20035;-83
2022/11/15 02:52:04;;;;;;;9.32;5.82;;;;;;;7.05;82.46;97916.88;4971078;28;20035;-83
2022/11/15 02:54:32;;;;;;;7.22;5.28;;;;;;;7.03;82.25;97911.03;4971623;28;20039;-83
2022/11/15 02:57:10;;;;;;;9.13;6.07;;;;;;;7.06;82.60;97909.84;4971398;28;20038;-83
2022/11/15 03:00:05;;;;;;;6.95;5.45;;;;;;;7.10;82.86;97906.69;4970203;28;20043;-83
2022/11/15 03:02:59;;;;;;;7.82;5.38;;;;;;;7.07;82.23;97901.84;4966353;28;20066;-83
2022/11/15 03:05:53;;;;;;;8.07;5.68;;;;;;;7.00;82.17;97900.16;4970478;28;20398;-83
2022/11/15 03:09:35;;;;;;;8.82;5.40;;;;;;;6.93;82.33;97889.63;4970640;28;20031;-83
2022/11/15 03:12:22;;;;;;;7.22;5.20;;;;;;;6.86;82.77;97894.75;4965265;28;20039;-83
2022/11/15 03:15:36;;;;;;;8.85;5.38;;;;;;;6.83;82.97;97889.09;4970799;28;20109;-83
2022/11/15 03:18:19;;;;;;;9.93;5.95;;;;;;;6.81;82.27;97899.72;4962309;28;20147;-83
2022/11/15 03:20:46;;;;;;;8.35;5.53;;;;;;;6.85;82.70;97894.94;4970653;28;20484;-83
2022/11/15 03:23:13;;;;;;;7.68;5.65;;;;;;;6.85;82.54;97893.16;4970432;28;20625;-83
2022/11/15 03:25:46;;;;;;;8.05;5.40;;;;;;;6.84;82.12;97890.72;4970138;28;20158;-83
2022/11/15 03:28:20;;;;;;;7.47;5.70;;;;;;;6.77;81.54;97879.38;4968899;28;20080;-83
2022/11/15 03:30:50;;;;;;;7.93;5.18;;;;;;;6.77;82.40;97877.59;4969699;28;20046;-84
2022/11/15 03:33:18;;;;;;;7.95;5.72;;;;;;;6.76;82.29;97875.97;4970541;28;20069;-84
2022/11/15 03:35:47;;;;;;;7.88;5.30;;;;;;;6.76;81.91;97877.78;4970427;28;20089;-84
2022/11/15 03:38:26;;;;;;;10.00;5.60;;;;;;;6.74;82.11;97882.38;4968908;28;20038;-84
2022/11/15 03:41:03;;;;;;;6.57;5.22;;;;;;;6.76;82.62;97877.78;4970435;28;20071;-83
2022/11/15 03:43:58;;;;;;;7.00;5.22;;;;;;;6.74;81.93;97877.16;4970168;28;20490;-83
2022/11/15 03:46:42;;;;;;;7.57;5.72;;;;;;;6.76;82.00;97873.38;4970187;28;20537;-84
2022/11/15 03:49:19;;;;;;;6.90;5.20;;;;;;;6.78;82.31;97871.41;4969562;28;20034;-84
2022/11/15 03:51:45;;;;;;;8.23;5.35;;;;;;;6.74;81.99;97870.16;4968375;28;20042;-84
2022/11/15 03:54:13;;;;;;;8.95;5.28;;;;;;;6.72;81.97;97864.31;4969094;28;20043;-83
2022/11/15 03:56:38;;;;;;;7.85;5.90;;;;;;;6.69;81.86;97862.06;4970408;28;20113;-83
2022/11/15 03:59:04;;;;;;;8.55;5.78;;;;;;;6.71;82.13;97858.25;4969847;28;20138;-85
2022/11/15 04:01:29;;;;;;;6.68;4.95;;;;;;;6.76;81.29;97864.75;4967229;28;20038;-84
2022/11/15 04:03:55;;;;;;;7.93;5.43;;;;;;;6.78;81.31;97860.97;4970231;28;20031;-83
2022/11/15 04:06:20;;;;;;;6.75;5.35;;;;;;;6.80;81.33;97866.00;4970147;28;20038;-83
2022/11/15 04:08:46;;;;;;;7.55;4.90;;;;;;;6.71;80.93;97868.69;4969058;28;20041;-83
2022/11/15 04:11:11;;;;;;;7.68;5.63;;;;;;;6.53;79.90;97873.44;4969934;28;20061;-83
2022/11/15 04:13:36;;;;;;;10.45;5.88;;;;;;;6.54;80.73;97874.28;4969475;28;20078;-83
2022/11/15 04:16:02;;;;;;;6.68;5.05;;;;;;;6.57;81.09;97879.94;4968998;28;20035;-83
2022/11/15 04:18:28;;;;;;;8.55;6.07;;;;;;;6.54;81.24;97875.09;4969719;28;20081;-83
2022/11/15 04:26:22;;;;;;;9.10;5.88;;;;;;;6.48;81.59;97865.38;4969801;28;20177;-83
2022/11/15 04:31:52;;;;;;;7.95;5.25;;;;;;;6.36;80.92;97862.41;4926956;29;20267;-83
2022/11/15 04:34:17;;;;;;;6.53;5.00;;;;;;;6.29;80.60;97866.69;4927367;29;20126;-83
2022/11/15 04:39:27;;;;;;;8.02;5.15;;;;;;;6.26;81.32;97861.06;4969104;28;20026;-83
2022/11/15 04:41:52;;;;;;;11.38;5.38;;;;;;;6.24;81.65;97848.22;4969477;28;20039;-83
2022/11/15 04:44:18;;;;;;;8.90;5.68;;;;;;;6.11;81.50;97848.78;4968784;28;20561;-84
2022/11/15 04:46:43;;;;;;;9.43;5.75;;;;;;;6.11;82.35;97848.78;4969058;28;20044;-83
2022/11/15 04:49:09;;;;;;;9.18;5.93;;;;;;;6.03;82.26;97835.06;4969521;28;20039;-83
2022/11/15 04:51:34;;;;;;;9.27;6.05;;;;;;;6.08;82.67;97845.75;4969027;28;20076;-83
2022/11/15 04:54:00;;;;;;;7.88;5.65;;;;;;;6.00;82.54;97846.66;4968615;28;20518;-83
2022/11/15 04:56:25;;;;;;;10.88;5.70;;;;;;;5.98;82.45;97838.19;4969452;28;20099;-83
2022/11/15 04:58:51;;;;;;;8.52;5.38;;;;;;;5.98;82.73;97835.56;4968410;28;20073;-83
2022/11/15 05:01:17;;;;;;;7.78;5.28;;;;;;;5.94;83.00;97829.13;4969281;28;20038;-83
2022/11/15 05:06:29;;;;;;;9.48;4.97;;;;;;;5.99;82.82;97816.38;4969321;28;20041;-83
2022/11/15 05:08:56;;;;;;;7.82;5.32;;;;;;;6.01;83.12;97826.63;4968490;28;20035;-83
2022/11/15 05:11:22;;;;;;;7.78;5.20;;;;;;;6.02;82.81;97817.81;4968946;28;20038;-83
2022/11/15 05:13:48;;;;;;;6.88;5.18;;;;;;;6.00;82.25;97815.41;4969485;28;20615;-83
2022/11/15 05:16:14;;;;;;;7.82;4.93;;;;;;;6.01;81.79;97817.00;4962692;28;20045;-83
2022/11/15 05:18:40;;;;;;;7.13;5.47;;;;;;;5.95;81.26;97822.94;4968771;28;20041;-83
2022/11/15 05:21:10;;;;;;;7.30;5.00;;;;;;;5.95;81.69;97820.31;4969328;28;20037;-83
2022/11/15 05:23:36;;;;;;;7.07;5.40;;;;;;;5.96;82.23;97814.13;4968170;28;20031;-83
2022/11/15 05:26:04;;;;;;;7.57;5.13;;;;;;;5.96;82.10;97808.13;4971321;28;20043;-83
2022/11/15 05:28:30;;;;;;;7.53;4.82;;;;;;;6.00;82.14;97831.03;4973084;28;20043;-83
2022/11/15 05:31:09;;;;;;;6.03;4.65;;;;;;;5.98;81.56;97827.78;4971823;28;20089;-83
2022/11/15 05:33:38;;;;;;;5.93;4.70;;;;;;;5.92;81.51;97823.28;4971528;28;20047;-83
2022/11/15 05:36:16;;;;;;;6.82;4.97;;;;;;;5.95;81.88;97817.72;4971238;28;20113;-83
2022/11/15 05:38:42;;;;;;;8.07;5.20;;;;;;;5.88;81.72;97816.78;4972040;28;20031;-83
2022/11/15 05:41:08;;;;;;;8.20;4.82;;;;;;;5.88;81.91;97817.59;4972034;28;20043;-83
2022/11/15 05:43:39;;;;;;;7.47;4.90;;;;;;;5.83;81.73;97808.69;4972076;28;20173;-84
2022/11/15 05:46:05;;;;;;;8.02;5.15;;;;;;;5.87;81.93;97807.34;4971753;28;20039;-83
2022/11/15 05:48:34;;;;;;;6.45;5.03;;;;;;;5.86;82.82;97811.72;4972329;28;20046;-82
2022/11/15 05:51:02;;;;;;;7.57;5.43;;;;;;;5.92;82.43;97807.66;4972709;28;20042;-83
2022/11/15 05:53:27;;;;;;;7.93;5.28;;;;;;;5.95;82.62;97811.72;4971668;28;20043;-83
2022/11/15 05:55:53;;;;;;;7.10;4.85;;;;;;;5.89;81.87;97808.78;4970032;28;20030;-83
2022/11/15 05:58:20;;;;;;;7.80;5.15;;;;;;;5.86;81.76;97816.13;4971874;28;20097;-83
2022/11/15 06:00:46;;;;;;;8.48;5.32;;;;;;;5.87;82.19;97800.34;4973767;28;20061;-83
2022/11/15 06:03:13;;;;;;;7.38;4.57;;;;;;;5.83;81.69;97803.50;4983818;28;20038;-83
2022/11/15 06:05:39;;;;;;;6.93;5.40;;;;;;;5.81;82.01;97797.63;4971458;28;20050;-83
2022/11/15 06:08:05;;;;;;;8.73;5.18;;;;;;;5.87;82.68;97794.31;4971590;28;20034;-83
2022/11/15 06:10:30;;;;;;;7.15;5.03;;;;;;;5.86;82.36;97796.13;4972001;28;20053;-83
2022/11/15 06:13:05;;;;;;;6.43;4.45;;;;;;;5.77;82.18;97794.59;4970359;28;20494;-83
2022/11/15 06:15:36;;;;;;;6.68;4.70;;;;;;;5.82;82.31;97792.28;4971705;28;20546;-83
2022/11/15 06:18:02;;;;;;;6.32;5.03;;;;;;;5.90;82.21;97793.97;4970365;28;20034;-83
2022/11/15 06:20:29;;;;;;;6.30;4.88;;;;;;;5.90;82.24;97797.41;4971112;28;20034;-83
2022/11/15 06:23:03;;;;;;;8.43;5.43;;;;;;;5.87;81.81;97797.72;4970372;28;20612;-83
2022/11/15 06:25:30;;;;;;;7.32;4.70;;;;;;;5.79;81.18;97808.22;4969962;28;20589;-83
2022/11/15 06:27:58;;;;;;;8.85;5.60;;;;;;;5.80;81.02;97817.66;4971020;28;20056;-83
2022/11/15 06:30:26;;;;;;;7.43;5.60;;;;;;;5.73;80.61;97823.72;4969693;28;20086;-82
2022/11/15 06:33:00;;;;;;;7.03;5.25;;;;;;;5.78;81.26;97830.03;4969861;28;20479;-82
2022/11/15 06:35:25;;;;;;;6.45;4.82;;;;;;;5.75;81.24;97829.56;4970860;28;20118;-83
2022/11/15 06:37:51;;;;;;;6.78;4.88;;;;;;;5.75;81.72;97832.97;4970077;28;20121;-83
2022/11/15 06:40:17;;;;;;;7.25;5.15;;;;;;;5.83;81.96;97819.91;4970857;28;20073;-82
2022/11/15 06:42:42;;;;;;;8.80;6.10;;;;;;;5.95;81.92;97827.34;4971272;28;20034;-83
2022/11/15 06:45:08;;;;;;;11.60;6.22;;;;;;;5.96;80.80;97829.75;4971489;28;20039;-83
2022/11/15 06:47:33;;;;;;;12.18;6.45;;;;;;;5.95;80.60;97822.13;4969780;28;20038;-83
2022/11/15 06:49:59;;;;;;;7.97;5.70;;;;;;;6.02;80.12;97818.63;4971085;28;20780;-83
2022/11/15 06:52:24;;;;;;;8.82;6.13;;;;;;;6.03;80.25;97815.03;4970733;28;20045;-83
2022/11/15 06:54:50;;;;;;;8.20;6.30;;;;;;;6.07;80.79;97816.31;4971089;28;20055;-83
2022/11/15 06:57:15;;;;;;;9.38;6.07;;;;;;;6.12;81.00;97821.00;4970392;28;20474;-83
2022/11/15 06:59:41;;;;;;;9.90;5.50;;;;;;;6.19;80.24;97815.88;4985672;28;20053;-83
2022/11/15 07:02:12;;;;;;;7.60;5.68;;;;;;;6.24;80.29;97813.50;4968425;28;20042;-83
2022/11/15 07:04:37;;;;;;;7.57;5.55;;;;;;;6.27;80.23;97810.56;4970185;28;20058;-83
2022/11/15 07:07:03;;;;;;;7.38;5.45;;;;;;;6.31;79.74;97809.22;4971205;28;20129;-83
2022/11/15 07:09:28;;;;;;;9.05;6.13;;;;;;;6.36;80.32;97822.53;4969416;28;20035;-82
2022/11/15 07:11:54;;;;;;;11.07;6.85;;;;;;;6.43;80.01;97810.41;4969894;28;20023;-83
2022/11/15 07:14:19;;;;;;;7.28;5.80;;;;;;;6.51;79.79;97818.13;4970063;28;20066;-83
2022/11/15 07:16:45;;;;;;;10.05;7.13;;;;;;;6.62;79.42;97807.25;4970123;28;20036;-83
2022/11/15 07:19:10;;;;;;;8.75;6.60;;;;;;;6.74;80.13;97804.19;4970132;28;20549;-82
2022/11/15 07:21:36;;;;;;;11.00;6.28;;;;;;;6.76;78.73;97789.16;4970374;28;20510;-84
2022/11/15 07:24:01;;;;;;;8.70;6.40;;;;;;;6.90;79.44;97790.94;4968461;28;20506;-83
2022/11/15 07:26:27;;;;;;;8.60;5.65;;;;;;;6.94;78.58;97797.38;4970081;28;20161;-84
2022/11/15 07:28:52;;;;;;;11.40;6.95;;;;;;;6.89;76.82;97799.72;4968659;28;20038;-82
2022/11/15 07:31:18;;;;;;;9.43;6.95;;;;;;;6.92;78.26;97805.41;4968986;28;20127;-83
2022/11/15 07:33:43;;;;;;;9.15;6.78;;;;;;;7.08;79.44;97804.38;4963537;28;21710;-82
2022/11/15 07:36:09;;;;;;;8.85;6.60;;;;;;;7.16;77.06;97806.06;4967672;28;20035;-82
2022/11/15 07:38:35;;;;;;;11.25;6.47;;;;;;;7.18;77.51;97793.63;4969333;28;20097;-82
2022/11/15 07:41:05;;;;;;;8.90;5.80;;;;;;;7.36;78.44;97801.84;4967928;28;20651;-83
2022/11/15 07:43:32;;;;;;;9.15;6.63;;;;;;;7.42;78.68;97784.63;4969725;28;20434;-83
2022/11/15 07:45:58;;;;;;;12.70;6.88;;;;;;;7.63;78.35;97804.72;4967882;28;20065;-83
2022/11/15 07:48:24;;;;;;;9.65;6.53;;;;;;;7.70;77.48;97808.97;4965022;28;20039;-83
2022/11/15 07:50:49;;;;;;;9.15;6.50;;;;;;;7.81;76.94;97806.88;4968963;28;20035;-83
2022/11/15 07:53:15;;;;;;;10.43;6.85;;;;;;;7.79;74.30;97802.63;4968636;28;20070;-83
2022/11/15 07:55:41;;;;;;;13.73;7.35;;;;;;;7.86;75.56;97805.31;4969048;28;20042;-83
2022/11/15 07:58:10;;;;;;;9.82;7.35;;;;;;;7.90;74.78;97810.94;4983950;28;20041;-83
2022/11/15 08:00:36;;;;;;;11.75;7.00;;;;;;;8.02;75.70;97804.19;4969193;28;20041;-82
2022/11/15 08:03:07;;;;;;;10.35;6.97;;;;;;;8.13;76.50;97795.84;4965723;28;20457;-83
2022/11/15 08:05:35;;;;;;;9.70;7.05;;;;;;;8.17;74.66;97804.13;4969059;28;20030;-83
2022/11/15 08:08:01;;;;;;;10.65;6.93;;;;;;;8.24;76.03;97802.34;4969140;28;20038;-83
2022/11/15 08:10:28;;;;;;;11.15;6.70;;;;;;;8.27;75.43;97797.53;4968223;28;20062;-82
2022/11/15 08:13:06;;;;;;;8.25;6.55;;;;;;;8.29;74.59;97786.91;4969132;28;20069;-83
2022/11/15 08:15:33;;;;;;;12.43;7.00;;;;;;;8.38;74.49;97790.19;4969657;28;20038;-82
2022/11/15 08:18:09;;;;;;;9.55;7.20;;;;;;;8.41;72.96;97795.84;4966491;28;20042;-83
2022/11/15 08:20:35;;;;;;;11.07;7.40;;;;;;;8.47;73.95;97799.50;4967691;28;20031;-82
2022/11/15 08:23:03;;;;;;;12.32;7.20;;;;;;;8.57;75.75;97785.06;4965463;28;20037;-83
2022/11/15 08:25:32;;;;;;;11.15;7.43;;;;;;;8.63;74.62;97788.69;4966743;28;20038;-83
2022/11/15 08:28:01;;;;;;;11.68;7.65;;;;;;;8.79;74.54;97793.59;4968261;28;20036;-83
2022/11/15 08:30:28;;;;;;;11.05;7.28;;;;;;;8.79;73.24;97785.75;4967635;28;20447;-83
2022/11/15 08:32:57;;;;;;;12.73;7.85;;;;;;;8.92;73.29;97789.41;4967284;28;20038;-83
2022/11/15 08:35:24;;;;;;;11.68;7.80;;;;;;;9.13;76.14;97791.91;4966108;28;20039;-83
2022/11/15 08:37:51;;;;;;;10.10;7.53;;;;;;;9.20;72.59;97792.72;4966942;28;20035;-83
2022/11/15 08:40:18;;;;;;;13.38;7.57;;;;;;;9.29;72.36;97788.09;4967065;28;20047;-83
2022/11/15 08:42:46;;;;;;;12.27;7.53;;;;;;;9.28;71.09;97792.53;4969140;28;20141;-83
2022/11/15 08:45:13;;;;;;;11.32;7.32;;;;;;;9.44;71.07;97785.31;4968111;28;20035;-83
2022/11/15 08:47:39;;;;;;;8.20;7.20;;;;;;;9.48;70.30;97778.69;4981410;28;20035;-83
2022/11/15 08:50:05;;;;;;;11.75;7.47;;;;;;;9.60;70.40;97779.72;4967962;28;20066;-83
2022/11/15 08:52:31;;;;;;;11.40;7.72;;;;;;;9.61;70.45;97773.47;4968108;28;20039;-83
2022/11/15 08:54:58;;;;;;;12.07;7.65;;;;;;;9.73;71.15;97766.63;4966468;28;20093;-83
2022/11/15 08:57:23;;;;;;;13.98;8.40;;;;;;;9.92;72.52;97763.16;4968065;28;20046;-83
2022/11/15 08:59:49;;;;;;;12.70;8.27;;;;;;;10.07;72.20;97770.00;4969036;28;20037;-83
2022/11/15 09:02:16;;;;;;;12.52;7.63;;;;;;;10.20;68.89;97764.75;4967705;28;20031;-82
2022/11/15 09:04:42;;;;;;;11.98;7.57;;;;;;;10.37;70.52;97771.16;4988245;28;20038;-83
2022/11/15 09:07:11;;;;;;;12.30;7.30;;;;;;;10.50;69.07;97762.47;4972627;28;20050;-83
2022/11/15 09:09:37;;;;;;;12.63;8.07;;;;;;;10.65;68.39;97764.84;4972354;28;20109;-83
2022/11/15 09:12:05;;;;;;;8.23;5.90;;;;;;;10.78;67.55;97762.16;4971733;28;20043;-83
2022/11/15 09:14:31;;;;;;;7.85;5.57;;;;;;;10.95;67.13;97750.16;4972514;28;20089;-83
2022/11/15 09:16:58;;;;;;;7.25;5.00;;;;;;;10.99;66.67;97743.50;4970281;28;20042;-84
2022/11/15 09:19:23;;;;;;;6.88;5.03;;;;;;;11.09;65.25;97740.38;4971222;28;20053;-84
2022/11/15 09:21:49;;;;;;;9.68;5.05;;;;;;;11.20;66.23;97744.16;4972649;28;20034;-84
2022/11/15 09:24:14;;;;;;;6.28;4.97;;;;;;;11.25;65.37;97753.00;4971984;28;20479;-84
2022/11/15 09:26:41;;;;;;;6.18;4.80;;;;;;;11.34;65.81;97745.69;4972512;28;20030;-84
2022/11/15 09:29:06;;;;;;;6.18;4.63;;;;;;;11.39;63.11;97748.47;4971147;28;20039;-83
2022/11/15 09:31:32;;;;;;;6.32;4.35;;;;;;;11.43;63.81;97739.16;4970524;28;20406;-83
2022/11/15 09:33:58;;;;;;;7.32;4.28;;;;;;;11.57;64.27;97744.31;4971862;28;20043;-83
2022/11/15 09:36:24;;;;;;;5.22;4.30;;;;;;;11.76;63.34;97746.00;4971735;28;20078;-83
2022/11/15 09:38:50;;;;;;;7.43;4.15;;;;;;;11.80;62.86;97734.00;4970070;28;20035;-83
2022/11/15 09:41:15;;;;;;;6.25;4.10;;;;;;;11.90;61.97;97728.31;4972371;28;20754;-84
2022/11/15 09:43:40;;;;;;;5.20;3.80;;;;;;;12.00;63.21;97728.63;4972321;28;20042;-84
2022/11/15 09:46:44;;;;;;;4.63;3.58;;;;;;;12.08;60.55;97722.25;4971895;28;20034;-83
2022/11/15 09:49:14;;;;;;;6.72;4.30;;;;;;;12.16;59.31;97722.78;4970835;28;20123;-84
2022/11/15 09:51:48;;;;;;;5.72;3.58;;;;;;;12.25;59.75;97721.47;4972011;28;20043;-84
2022/11/15 09:54:51;;;;;;;4.88;3.50;;;;;;;12.43;60.87;97718.03;4970660;28;20042;-84
2022/11/15 09:57:24;;;;;;;5.03;3.50;;;;;;;12.55;59.29;97721.53;4956239;28;20041;-84
2022/11/15 09:59:59;;;;;;;4.88;3.10;;;;;;;12.63;57.89;97702.00;4968852;28;20097;-83
2022/11/15 10:03:00;;;;;;;5.45;3.33;;;;;;;12.79;59.62;97711.91;4959424;28;20039;-83
2022/11/15 10:05:28;;;;;;;3.60;2.83;;;;;;;12.87;56.25;97705.53;4969483;28;20039;-83
2022/11/15 10:08:28;;;;;;;4.65;3.22;;;;;;;13.05;57.60;97705.47;4969571;28;20034;-83
2022/11/15 10:11:27;;;;;;;4.38;3.40;;;;;;;13.10;55.74;97702.97;4965046;28;20093;-83
2022/11/15 10:13:59;;;;;;;5.15;3.42;;;;;;;13.18;55.78;97703.69;4974113;28;20046;-84
2022/11/15 10:16:50;;;;;;;4.10;3.22;;;;;;;13.29;56.62;97692.41;4970220;28;20172;-84
2022/11/15 10:19:43;;;;;;;4.57;3.50;;;;;;;13.46;55.52;97679.38;4970476;28;20126;-84
2022/11/15 10:22:40;;;;;;;4.25;3.50;;;;;;;13.50;54.62;97681.31;4970651;28;20066;-84
2022/11/15 10:25:08;;;;;;;10.65;5.88;;;;;;;13.46;58.04;97672.28;4968327;28;20046;-83
2022/11/15 10:27:35;;;;;;;13.93;6.90;;;;;;;13.43;59.28;97670.06;4972328;28;20451;-83
2022/11/15 10:30:04;;;;;;;8.80;7.22;;;;;;;13.55;59.78;97670.88;4970423;28;20070;-83
2022/11/15 10:32:35;;;;;;;9.95;6.30;;;;;;;13.60;59.26;97660.47;4971138;28;20070;-83
2022/11/15 10:35:19;;;;;;;9.18;6.43;;;;;;;13.60;59.88;97647.28;4971596;28;20546;-84
2022/11/15 10:37:44;;;;;;;10.07;6.47;;;;;;;13.71;58.58;97644.88;4970044;28;20097;-83
2022/11/15 10:40:23;;;;;;;7.30;4.75;;;;;;;13.82;57.93;97647.50;4969072;28;20035;-84
2022/11/15 10:43:10;;;;;;;8.25;5.50;;;;;;;13.95;57.34;97643.03;4970816;28;20035;-83
2022/11/15 10:45:36;;;;;;;6.15;4.32;;;;;;;14.09;57.19;97633.81;4969266;28;20034;-83
2022/11/15 10:48:14;;;;;;;7.93;4.50;;;;;;;14.17;55.35;97634.28;4972963;28;20034;-83
2022/11/15 10:50:46;;;;;;;8.88;6.82;;;;;;;14.16;56.51;97621.31;4970710;28;20050;-83
2022/11/15 10:53:30;;;;;;;8.05;6.57;;;;;;;14.22;58.57;97632.78;4970689;28;20394;-83
2022/11/15 10:56:08;;;;;;;5.43;3.97;;;;;;;14.36;54.99;97631.47;4968907;28;20027;-84
2022/11/15 10:58:45;;;;;;;3.65;3.35;;;;;;;14.47;54.31;97617.47;4971628;28;20031;-84
2022/11/15 11:01:19;;;;;;;7.25;4.90;;;;;;;14.54;54.63;97620.75;4969295;28;20041;-84
2022/11/15 11:04:02;;;;;;;4.32;3.60;;;;;;;14.65;54.57;97616.47;4966301;28;20100;-84
2022/11/15 11:06:29;;;;;;;6.55;3.38;;;;;;;14.77;53.34;97616.41;4969109;28;20166;-84
2022/11/15 11:08:59;;;;;;;6.97;3.63;;;;;;;14.83;53.31;97616.25;4969360;28;20030;-83
2022/11/15 11:11:44;;;;;;;5.00;4.45;;;;;;;14.77;52.54;97611.13;4968868;28;20038;-83
2022/11/15 11:14:27;;;;;;;6.47;5.05;;;;;;;14.82;53.66;97611.22;4969994;28;20085;-84
2022/11/15 11:17:36;;;;;;;7.03;4.85;;;;;;;14.81;53.51;97606.94;4968947;28;20081;-83
2022/11/15 11:20:20;;;;;;;5.75;5.15;;;;;;;14.90;53.24;97601.06;4984853;28;20055;-83
2022/11/15 11:23:16;;;;;;;6.30;5.03;;;;;;;14.90;52.55;97600.25;4968156;28;20043;-84
2022/11/15 11:26:07;;;;;;;5.38;4.43;;;;;;;15.02;53.74;97598.34;4969956;28;20158;-84
2022/11/15 11:28:59;;;;;;;8.68;5.15;;;;;;;15.07;53.22;97601.06;4969373;28;20046;-83
2022/11/15 11:32:19;;;;;;;7.07;4.40;;;;;;;15.08;53.07;97596.59;4969215;28;20134;-83
2022/11/15 11:35:06;;;;;;;5.55;4.53;;;;;;;15.04;53.26;97585.69;4957302;28;20597;-83
2022/11/15 11:37:59;;;;;;;7.18;5.25;;;;;;;15.06;53.24;97582.81;4968880;28;20035;-83
2022/11/15 11:40:31;;;;;;;6.43;4.88;;;;;;;15.10;51.92;97579.44;4966898;28;20121;-83
2022/11/15 11:43:42;;;;;;;8.20;4.90;;;;;;;15.22;52.21;97572.22;4968613;28;20026;-84
2022/11/15 11:46:38;;;;;;;7.75;4.88;;;;;;;15.32;52.00;97565.50;4957617;28;20529;-84
2022/11/15 11:49:23;;;;;;;8.35;4.78;;;;;;;15.42;51.22;97573.59;4969339;28;20062;-83
2022/11/15 11:52:00;;;;;;;8.40;4.30;;;;;;;15.56;53.65;97561.63;4968543;28;20047;-83
2022/11/15 11:54:37;;;;;;;8.07;4.25;;;;;;;15.52;50.58;97560.50;4968317;28;20058;-83
2022/11/15 11:57:23;;;;;;;6.05;4.40;;;;;;;15.53;50.24;97562.09;4968518;28;20047;-83
2022/11/15 12:00:19;;;;;;;6.40;5.70;;;;;;;15.67;51.72;97552.81;4968319;28;20434;-83
2022/11/15 12:03:13;;;;;;;5.45;4.10;;;;;;;15.75;50.76;97548.94;4965426;28;20402;-83
2022/11/15 12:05:44;;;;;;;5.28;4.07;;;;;;;15.85;50.14;97549.06;4968985;28;20070;-83
2022/11/15 12:08:35;;;;;;;;;;;;;;;15.90;50.50;97540.41;4968518;28;20070;-84
2022/11/15 12:11:32;;;;;;;5.00;4.22;;;;;;;15.97;50.97;97541.00;4969264;28;19987;-83
2022/11/15 12:14:03;;;;;;;6.40;4.38;;;;;;;16.11;50.45;97547.50;4968634;28;20034;-83
2022/11/15 12:16:33;;;;;;;5.07;4.15;;;;;;;16.09;49.99;97544.31;4967010;28;20499;-83
2022/11/15 12:19:04;;;;;;;4.90;4.07;;;;;;;16.01;49.96;97542.06;4969192;28;20106;-83
2022/11/15 12:21:46;;;;;;;5.70;4.18;;;;;;;15.83;49.30;97539.75;4968419;28;20098;-82